Time;durP1;ratioP1;P1;durP2;ratioP2;P2;SDS_P1;SDS_P2;PMS_P1;PMS_P2;Temp;Humidity;BMP_temperature;BMP_pressure;BME280_temperature;BME280_humidity;BME280_pressure;Samples;Min_cycle;Max_cycle;Signal;HPM_P1;HPM_P2
2022/10/15 00:00:49;;;;;;;;;;;15.70;70.60;;;;;;5035572;28;19917;-79
2022/10/15 00:03:15;;;;;;;;;;;15.70;70.60;;;;;;5035646;28;19913;-79
2022/10/15 00:05:41;;;;;;;;;;;15.70;70.60;;;;;;5035573;28;19913;-80
2022/10/15 00:08:08;;;;;;;;;;;15.70;70.70;;;;;;5034128;28;19913;-80
2022/10/15 00:10:34;;;;;;;;;;;15.70;70.70;;;;;;5034007;28;20436;-79
2022/10/15 00:13:00;;;;;;;;;;;15.60;70.60;;;;;;5050971;28;19920;-80
2022/10/15 00:15:25;;;;;;;;;;;15.70;70.70;;;;;;5035063;28;19913;-80
2022/10/15 00:17:51;;;;;;;;;;;15.60;70.60;;;;;;5051377;28;19921;-79
2022/10/15 00:20:17;;;;;;;;;;;15.60;70.60;;;;;;5017237;28;20403;-79
2022/10/15 00:22:42;;;;;;;;;;;15.60;70.60;;;;;;5033972;28;19924;-79
2022/10/15 00:25:08;;;;;;;;;;;15.60;70.70;;;;;;5034773;28;19909;-80
2022/10/15 00:27:34;;;;;;;;;;;15.60;70.60;;;;;;5035703;28;20004;-79
2022/10/15 00:30:02;;;;;;;;;;;15.60;70.70;;;;;;5034181;28;19909;-79
2022/10/15 00:32:28;;;;;;;;;;;15.60;70.70;;;;;;5050607;28;19924;-80
2022/10/15 00:34:53;;;;;;;;;;;15.60;70.70;;;;;;5033753;28;19912;-80
2022/10/15 00:37:20;;;;;;;;;;;15.50;70.60;;;;;;5033672;28;19971;-80
2022/10/15 00:39:45;;;;;;;;;;;15.50;70.70;;;;;;5016893;28;19932;-80
2022/10/15 00:42:11;;;;;;;;;;;15.50;70.70;;;;;;5016939;28;19917;-79
2022/10/15 00:44:51;;;;;;;;;;;15.50;70.70;;;;;;5033536;28;19917;-80
2022/10/15 00:47:19;;;;;;;;;;;15.50;70.70;;;;;;5033604;28;19919;-79
2022/10/15 00:49:52;;;;;;;;;;;15.40;70.70;;;;;;5033368;28;19913;-80
2022/10/15 00:52:36;;;;;;;;;;;15.40;70.70;;;;;;5033357;28;19913;-80
2022/10/15 00:55:05;;;;;;;;;;;15.40;70.70;;;;;;5050209;28;19962;-79
2022/10/15 00:57:32;;;;;;;;;;;15.40;70.70;;;;;;5034545;28;19909;-80
2022/10/15 01:00:00;;;;;;;;;;;15.30;70.70;;;;;;5033213;28;19925;-80
2022/10/15 01:02:26;;;;;;;;;;;15.30;70.70;;;;;;5033322;28;19994;-80
2022/10/15 01:04:52;;;;;;;;;;;15.30;70.80;;;;;;5033375;28;19913;-80
2022/10/15 01:07:18;;;;;;;;;;;15.30;70.80;;;;;;5032971;28;20383;-79
2022/10/15 01:09:45;;;;;;;;;;;15.30;70.80;;;;;;5049975;28;20072;-80
2022/10/15 01:12:17;;;;;;;;;;;15.30;70.80;;;;;;5034455;28;19913;-80
2022/10/15 01:14:48;;;;;;;;;;;15.20;70.80;;;;;;5033320;28;19913;-80
2022/10/15 01:17:23;;;;;;;;;;;15.20;70.80;;;;;;5033270;28;19913;-80
2022/10/15 01:20:12;;;;;;;;;;;15.20;70.80;;;;;;5033203;28;19921;-79
2022/10/15 01:22:44;;;;;;;;;;;15.20;70.80;;;;;;5025023;28;19919;-80
2022/10/15 01:25:13;;;;;;;;;;;15.20;70.90;;;;;;5049641;28;19913;-80
2022/10/15 01:27:42;;;;;;;;;;;15.10;70.80;;;;;;5049396;28;20374;-80
2022/10/15 01:30:17;;;;;;;;;;;15.10;70.80;;;;;;5033012;28;19921;-80
2022/10/15 01:32:49;;;;;;;;;;;15.20;70.90;;;;;;5032847;28;19913;-79
2022/10/15 01:35:21;;;;;;;;;;;15.10;70.90;;;;;;5049519;28;19913;-79
2022/10/15 01:37:54;;;;;;;;;;;15.10;70.80;;;;;;5032251;28;20005;-81
2022/10/15 01:40:41;;;;;;;;;;;15.10;70.80;;;;;;5034085;28;19928;-80
2022/10/15 01:43:10;;;;;;;;;;;15.10;70.90;;;;;;5033422;28;20100;-80
2022/10/15 01:46:07;;;;;;;;;;;15.10;71.00;;;;;;5033662;28;19917;-79
2022/10/15 01:48:58;;;;;;;;;;;15.10;70.90;;;;;;5032318;28;19913;-79
2022/10/15 01:51:24;;;;;;;;;;;15.10;70.90;;;;;;5034432;28;20021;-89
2022/10/15 01:53:57;;;;;;;;;;;15.00;70.90;;;;;;5035542;28;19917;-87
2022/10/15 01:56:23;;;;;;;;;;;15.00;70.90;;;;;;5034896;28;20407;-87
2022/10/15 01:58:51;;;;;;;;;;;15.00;70.90;;;;;;5033755;28;19959;-86
2022/10/15 02:01:19;;;;;;;;;;;15.00;70.90;;;;;;5033800;28;19921;-87
2022/10/15 02:03:46;;;;;;;;;;;15.00;71.00;;;;;;5018400;28;19917;-87
2022/10/15 02:06:15;;;;;;;;;;;15.00;71.00;;;;;;5034282;28;19920;-87
2022/10/15 02:09:02;;;;;;;;;;;15.00;71.00;;;;;;5034003;28;19956;-86
2022/10/15 02:11:29;;;;;;;;;;;15.00;71.00;;;;;;5032754;28;19920;-87
2022/10/15 02:14:04;;;;;;;;;;;15.00;71.10;;;;;;5033645;28;20368;-86
2022/10/15 02:16:41;;;;;;;;;;;15.00;71.00;;;;;;5033829;28;19913;-87
2022/10/15 02:19:19;;;;;;;;;;;14.90;71.00;;;;;;5034955;28;19913;-86
2022/10/15 02:22:03;;;;;;;;;;;14.90;71.00;;;;;;5037589;28;20094;-86
2022/10/15 02:24:34;;;;;;;;;;;14.90;71.10;;;;;;5037420;28;20391;-87
2022/10/15 02:27:05;;;;;;;;;;;14.90;71.70;;;;;;5037402;28;19917;-87
2022/10/15 02:29:32;;;;;;;;;;;14.90;71.10;;;;;;5037423;28;19920;-92
2022/10/15 02:31:59;;;;;;;;;;;14.90;71.10;;;;;;5038239;28;19909;-87
2022/10/15 02:34:26;;;;;;;;;;;14.90;71.10;;;;;;5038048;28;20448;-87
2022/10/15 02:36:52;;;;;;;;;;;14.90;71.10;;;;;;5037179;28;20010;-87
2022/10/15 02:39:19;;;;;;;;;;;14.90;71.10;;;;;;5038554;28;19920;-87
2022/10/15 02:41:46;;;;;;;;;;;14.90;71.20;;;;;;5036822;28;20381;-86
2022/10/15 02:44:12;;;;;;;;;;;14.90;71.20;;;;;;5036984;28;19924;-90
2022/10/15 02:46:38;;;;;;;;;;;14.80;71.10;;;;;;5019626;28;19909;-86
2022/10/15 02:49:04;;;;;;;;;;;14.90;71.20;;;;;;5036661;28;19924;-86
2022/10/15 02:51:31;;;;;;;;;;;14.80;71.10;;;;;;5020061;28;19913;-87
2022/10/15 02:53:57;;;;;;;;;;;14.80;71.10;;;;;;5036847;28;20007;-86
2022/10/15 02:56:23;;;;;;;;;;;14.80;71.20;;;;;;5036939;28;19955;-87
2022/10/15 02:58:48;;;;;;;;;;;14.80;71.20;;;;;;5036798;28;19913;-86
2022/10/15 03:01:14;;;;;;;;;;;14.80;71.20;;;;;;5036711;28;20258;-88
2022/10/15 03:03:40;;;;;;;;;;;14.80;71.20;;;;;;5036714;28;20000;-89
2022/10/15 03:06:06;;;;;;;;;;;14.90;71.20;;;;;;5037536;28;19928;-88
2022/10/15 03:08:31;;;;;;;;;;;14.80;71.20;;;;;;5037138;28;19909;-88
2022/10/15 03:11:00;;;;;;;;;;;14.80;71.20;;;;;;5036617;28;20004;-88
2022/10/15 03:13:26;;;;;;;;;;;14.80;71.20;;;;;;5020086;28;20431;-91
2022/10/15 03:15:52;;;;;;;;;;;14.80;71.20;;;;;;5036535;28;19917;-89
2022/10/15 03:18:19;;;;;;;;;;;14.80;71.20;;;;;;5036335;28;19917;-89
2022/10/15 03:20:52;;;;;;;;;;;14.80;71.20;;;;;;5036601;28;20040;-86
2022/10/15 03:23:17;;;;;;;;;;;14.80;71.30;;;;;;5040383;28;19921;-88
2022/10/15 03:25:43;;;;;;;;;;;14.80;71.30;;;;;;5038603;28;20332;-87
2022/10/15 03:28:10;;;;;;;;;;;14.80;71.30;;;;;;5045371;28;20409;-88
2022/10/15 03:30:39;;;;;;;;;;;14.80;71.30;;;;;;5046390;28;19913;-89
2022/10/15 03:33:06;;;;;;;;;;;14.80;71.30;;;;;;5042437;28;19931;-88
2022/10/15 03:35:32;;;;;;;;;;;14.80;71.30;;;;;;5037147;28;20383;-88
2022/10/15 03:37:58;;;;;;;;;;;14.70;71.20;;;;;;5037778;28;19967;-88
2022/10/15 03:40:24;;;;;;;;;;;14.70;71.20;;;;;;5037460;28;20017;-88
2022/10/15 03:42:55;;;;;;;;;;;14.70;71.30;;;;;;5036921;28;19921;-87
2022/10/15 03:45:23;;;;;;;;;;;14.70;71.30;;;;;;5020257;28;20015;-89
2022/10/15 03:47:57;;;;;;;;;;;14.70;71.30;;;;;;5035915;28;19909;-88
2022/10/15 03:50:26;;;;;;;;;;;14.70;71.30;;;;;;5037176;28;19916;-87
2022/10/15 03:52:52;;;;;;;;;;;14.70;71.30;;;;;;5037483;28;19920;-91
2022/10/15 03:55:18;;;;;;;;;;;14.70;71.30;;;;;;5037074;28;20284;-87
2022/10/15 03:57:44;;;;;;;;;;;14.70;71.40;;;;;;5036934;28;19917;-87
2022/10/15 04:00:11;;;;;;;;;;;14.70;71.30;;;;;;5036473;28;19925;-87
2022/10/15 04:02:40;;;;;;;;;;;14.70;71.40;;;;;;5037429;28;20361;-87
2022/10/15 04:05:16;;;;;;;;;;;14.60;71.30;;;;;;5037453;28;19917;-88
2022/10/15 04:07:48;;;;;;;;;;;14.70;71.40;;;;;;5037225;28;19920;-87
2022/10/15 04:10:18;;;;;;;;;;;14.60;71.30;;;;;;5037758;28;19913;-87
2022/10/15 04:12:44;;;;;;;;;;;14.70;71.40;;;;;;5038919;28;19988;-89
2022/10/15 04:15:14;;;;;;;;;;;14.60;71.40;;;;;;5038463;28;19980;-88
2022/10/15 04:17:46;;;;;;;;;;;14.60;71.40;;;;;;5038188;28;19956;-89
2022/10/15 04:20:12;;;;;;;;;;;14.60;71.40;;;;;;5035736;28;20390;-85
2022/10/15 04:22:42;;;;;;;;;;;14.60;71.40;;;;;;5037213;28;20408;-90
2022/10/15 04:25:08;;;;;;;;;;;14.60;72.00;;;;;;5036418;28;19913;-87
2022/10/15 04:27:34;;;;;;;;;;;14.60;71.40;;;;;;5038235;28;19959;-90
2022/10/15 04:30:12;;;;;;;;;;;14.60;71.40;;;;;;5023851;28;20424;-89
2022/10/15 04:32:43;;;;;;;;;;;14.60;71.40;;;;;;5038690;28;19913;-86
2022/10/15 04:35:09;;;;;;;;;;;14.60;71.40;;;;;;5021020;28;19913;-87
2022/10/15 04:38:04;;;;;;;;;;;14.60;71.40;;;;;;5028582;28;19961;-87
2022/10/15 04:40:56;;;;;;;;;;;14.60;71.40;;;;;;5038663;28;19972;-88
2022/10/15 04:43:23;;;;;;;;;;;14.60;71.50;;;;;;5037114;28;19990;-88
2022/10/15 04:45:57;;;;;;;;;;;14.60;71.50;;;;;;5043860;28;19981;-92
2022/10/15 04:48:23;;;;;;;;;;;14.60;71.50;;;;;;5049183;28;20007;-88
2022/10/15 04:50:49;;;;;;;;;;;14.60;71.50;;;;;;5020576;28;19909;-87
2022/10/15 04:53:19;;;;;;;;;;;14.60;71.50;;;;;;5018999;28;19971;-88
2022/10/15 04:55:49;;;;;;;;;;;14.60;71.50;;;;;;5035085;28;19955;-86
2022/10/15 04:58:15;;;;;;;;;;;14.60;71.50;;;;;;5034660;28;19913;-86
2022/10/15 05:00:41;;;;;;;;;;;14.60;71.50;;;;;;5034780;28;20361;-87
2022/10/15 05:03:25;;;;;;;;;;;14.60;71.50;;;;;;5036418;28;19957;-87
2022/10/15 05:06:05;;;;;;;;;;;14.60;71.50;;;;;;5035889;28;19921;-88
2022/10/15 05:08:32;;;;;;;;;;;14.60;71.50;;;;;;5034999;28;19995;-86
2022/10/15 05:11:12;;;;;;;;;;;14.60;71.50;;;;;;5035175;28;19916;-87
2022/10/15 05:13:38;;;;;;;;;;;14.50;71.50;;;;;;5035123;28;19913;-90
2022/10/15 05:16:12;;;;;;;;;;;14.60;71.50;;;;;;5035336;28;19909;-87
2022/10/15 05:18:38;;;;;;;;;;;14.60;71.60;;;;;;5034880;28;20277;-87
2022/10/15 05:21:04;;;;;;;;;;;14.60;71.50;;;;;;5035369;28;20333;-87
2022/10/15 05:23:30;;;;;;;;;;;14.60;71.60;;;;;;5037817;28;19913;-86
2022/10/15 05:26:12;;;;;;;;;;;14.60;71.50;;;;;;5037224;28;19909;-87
2022/10/15 05:28:38;;;;;;;;;;;14.60;71.60;;;;;;5036626;28;19913;-88
2022/10/15 05:31:08;;;;;;;;;;;14.60;71.50;;;;;;5039797;28;19916;-89
2022/10/15 05:33:34;;;;;;;;;;;14.60;71.50;;;;;;5029636;28;19920;-87
2022/10/15 05:36:11;;;;;;;;;;;14.60;71.60;;;;;;5049936;28;19977;-96
2022/10/15 05:38:37;;;;;;;;;;;14.60;71.60;;;;;;5052604;28;19928;-89
2022/10/15 05:41:03;;;;;;;;;;;14.60;71.50;;;;;;5031308;28;19925;-93
2022/10/15 05:43:28;;;;;;;;;;;14.50;71.50;;;;;;5044850;28;20325;-89
2022/10/15 05:45:56;;;;;;;;;;;14.60;71.60;;;;;;5036741;28;19909;-89
2022/10/15 05:48:22;;;;;;;;;;;14.60;71.60;;;;;;5036341;28;19913;-87
2022/10/15 05:50:48;;;;;;;;;;;14.50;71.60;;;;;;5041093;28;19955;-87
2022/10/15 05:53:21;;;;;;;;;;;14.60;71.60;;;;;;5042820;28;20012;-88
2022/10/15 05:55:51;;;;;;;;;;;14.60;71.60;;;;;;5024335;28;19980;-88
2022/10/15 05:58:17;;;;;;;;;;;14.60;71.60;;;;;;5037717;28;19913;-89
2022/10/15 06:00:43;;;;;;;;;;;14.60;71.60;;;;;;5035598;28;19917;-89
2022/10/15 06:03:11;;;;;;;;;;;14.60;71.60;;;;;;5033930;28;20412;-89
2022/10/15 06:05:36;;;;;;;;;;;14.60;71.60;;;;;;5033390;28;19936;-88
2022/10/15 06:08:02;;;;;;;;;;;14.60;71.60;;;;;;5033459;28;20326;-92
2022/10/15 06:10:28;;;;;;;;;;;14.60;71.60;;;;;;5033513;28;20007;-89
2022/10/15 06:12:54;;;;;;;;;;;14.60;71.60;;;;;;5032929;28;20388;-88
2022/10/15 06:15:20;;;;;;;;;;;14.60;71.60;;;;;;5033319;28;20330;-91
2022/10/15 06:17:45;;;;;;;;;;;14.60;71.60;;;;;;5033315;28;19913;-89
2022/10/15 06:20:11;;;;;;;;;;;14.60;71.60;;;;;;5033649;28;19918;-88
2022/10/15 06:22:37;;;;;;;;;;;14.60;71.60;;;;;;5033741;28;19924;-92
2022/10/15 06:25:05;;;;;;;;;;;14.60;71.60;;;;;;5034070;28;19913;-92
2022/10/15 06:27:32;;;;;;;;;;;14.60;71.60;;;;;;5017548;28;20014;-89
2022/10/15 06:29:58;;;;;;;;;;;14.60;71.60;;;;;;5017619;28;19960;-88
2022/10/15 06:32:24;;;;;;;;;;;14.60;71.60;;;;;;5033772;28;19917;-88
2022/10/15 06:34:49;;;;;;;;;;;14.70;71.70;;;;;;5017654;28;19925;-89
2022/10/15 06:37:15;;;;;;;;;;;14.70;71.70;;;;;;5033181;28;19913;-88
2022/10/15 06:39:41;;;;;;;;;;;14.70;71.70;;;;;;5033057;28;19921;-90
2022/10/15 06:42:06;;;;;;;;;;;14.70;71.70;;;;;;5017971;28;19968;-87
2022/10/15 06:44:38;;;;;;;;;;;14.70;71.70;;;;;;5019939;28;19917;-85
2022/10/15 06:47:04;;;;;;;;;;;14.70;71.70;;;;;;5016748;28;20452;-88
2022/10/15 06:49:29;;;;;;;;;;;14.70;71.70;;;;;;5033426;28;19913;-87
2022/10/15 06:51:55;;;;;;;;;;;14.70;71.70;;;;;;5032651;28;19963;-87
2022/10/15 06:54:21;;;;;;;;;;;14.70;71.70;;;;;;5032862;28;19913;-87
2022/10/15 06:56:47;;;;;;;;;;;14.80;71.70;;;;;;5032840;28;19996;-87
2022/10/15 06:59:12;;;;;;;;;;;14.80;71.70;;;;;;5033189;28;19921;-88
2022/10/15 07:01:38;;;;;;;;;;;14.80;71.70;;;;;;5033064;28;20004;-88
2022/10/15 07:04:04;;;;;;;;;;;14.80;71.70;;;;;;5032615;28;20003;-88
2022/10/15 07:06:29;;;;;;;;;;;14.80;71.70;;;;;;5036397;28;19909;-86
2022/10/15 07:08:57;;;;;;;;;;;14.80;71.70;;;;;;5036508;28;19967;-88
2022/10/15 07:11:22;;;;;;;;;;;14.90;71.80;;;;;;5036295;28;19909;-87
2022/10/15 07:13:48;;;;;;;;;;;14.90;71.70;;;;;;5037922;28;19913;-87
2022/10/15 07:16:14;;;;;;;;;;;14.90;71.80;;;;;;5038128;28;20300;-87
2022/10/15 07:18:40;;;;;;;;;;;14.90;71.70;;;;;;5036560;28;19944;-89
2022/10/15 07:21:07;;;;;;;;;;;14.90;71.70;;;;;;5036483;28;19917;-83
2022/10/15 07:23:32;;;;;;;;;;;14.90;71.80;;;;;;5019667;28;19917;-89
2022/10/15 07:25:59;;;;;;;;;;;14.90;71.70;;;;;;5036520;28;19916;-91
2022/10/15 07:28:25;;;;;;;;;;;14.90;71.70;;;;;;5037282;28;19924;-88
2022/10/15 07:30:51;;;;;;;;;;;14.90;71.70;;;;;;5036027;28;19909;-84
2022/10/15 07:33:17;;;;;;;;;;;15.00;71.70;;;;;;5020489;28;19917;-90
2022/10/15 07:35:52;;;;;;;;;;;15.00;71.70;;;;;;5036364;28;19909;-90
2022/10/15 07:38:18;;;;;;;;;;;15.00;71.70;;;;;;5019525;28;19969;-90
2022/10/15 07:40:44;;;;;;;;;;;15.00;71.70;;;;;;5036141;28;19928;-89
2022/10/15 07:43:09;;;;;;;;;;;15.00;71.70;;;;;;5019927;28;19921;-92
2022/10/15 07:45:35;;;;;;;;;;;15.00;71.70;;;;;;5036185;28;19917;-89
2022/10/15 07:48:01;;;;;;;;;;;15.00;71.70;;;;;;5035819;28;19917;-88
2022/10/15 07:50:27;;;;;;;;;;;15.10;71.70;;;;;;5036525;28;19909;-88
2022/10/15 07:52:58;;;;;;;;;;;15.10;71.70;;;;;;5035764;28;19917;-89
2022/10/15 07:55:24;;;;;;;;;;;15.10;71.70;;;;;;5035084;28;19913;-89
2022/10/15 07:57:50;;;;;;;;;;;15.10;71.70;;;;;;5035901;28;19911;-88
2022/10/15 08:00:15;;;;;;;;;;;15.10;71.60;;;;;;5035372;28;19924;-89
2022/10/15 08:02:41;;;;;;;;;;;15.10;71.70;;;;;;5035584;28;20378;-87
2022/10/15 08:05:07;;;;;;;;;;;15.20;71.70;;;;;;5035283;28;19944;-87
2022/10/15 08:07:33;;;;;;;;;;;15.10;71.60;;;;;;5019250;28;20007;-85
2022/10/15 08:10:00;;;;;;;;;;;15.10;71.60;;;;;;5019082;28;20015;-88
2022/10/15 08:12:25;;;;;;;;;;;15.20;71.60;;;;;;5035238;28;19960;-86
2022/10/15 08:14:51;;;;;;;;;;;15.20;71.60;;;;;;5038533;28;19956;-87
2022/10/15 08:17:18;;;;;;;;;;;15.20;71.60;;;;;;5036266;28;19936;-88
2022/10/15 08:19:44;;;;;;;;;;;15.20;71.60;;;;;;5035699;28;20334;-88
2022/10/15 08:22:11;;;;;;;;;;;15.20;71.60;;;;;;5019067;28;19939;-86
2022/10/15 08:24:37;;;;;;;;;;;15.30;71.70;;;;;;5034990;28;19971;-86
2022/10/15 08:27:02;;;;;;;;;;;15.30;71.60;;;;;;5018426;28;19909;-85
2022/10/15 08:29:28;;;;;;;;;;;15.30;71.60;;;;;;5034765;28;19925;-83
2022/10/15 08:31:53;;;;;;;;;;;15.30;71.60;;;;;;5034202;28;19959;-83
2022/10/15 08:34:22;;;;;;;;;;;15.30;71.60;;;;;;5034889;28;20361;-86
2022/10/15 08:36:48;;;;;;;;;;;15.40;71.60;;;;;;5034754;28;19946;-87
2022/10/15 08:39:13;;;;;;;;;;;15.40;71.60;;;;;;5035068;28;20301;-89
2022/10/15 08:41:39;;;;;;;;;;;15.40;71.60;;;;;;5051284;28;19968;-86
2022/10/15 08:44:11;;;;;;;;;;;15.40;71.50;;;;;;5051467;28;19967;-87
2022/10/15 08:46:45;;;;;;;;;;;15.40;71.50;;;;;;5034651;28;20004;-88
2022/10/15 08:49:20;;;;;;;;;;;15.50;71.60;;;;;;5035818;28;19999;-86
2022/10/15 08:51:48;;;;;;;;;;;15.50;71.50;;;;;;5034528;28;19917;-86
2022/10/15 08:54:17;;;;;;;;;;;15.50;71.50;;;;;;5034417;28;19996;-86
2022/10/15 08:56:45;;;;;;;;;;;15.60;71.50;;;;;;5050977;28;19913;-89
2022/10/15 08:59:14;;;;;;;;;;;15.60;71.50;;;;;;5034483;28;19909;-87
2022/10/15 09:01:44;;;;;;;;;;;15.60;71.50;;;;;;5051297;28;19917;-86
2022/10/15 09:04:25;;;;;;;;;;;15.70;71.50;;;;;;5035687;28;20012;-85
2022/10/15 09:07:29;;;;;;;;;;;15.70;71.50;;;;;;5034307;28;19917;-86
2022/10/15 09:09:59;;;;;;;;;;;15.70;71.50;;;;;;4961419;28;19987;-87
2022/10/15 09:12:37;;;;;;;;;;;15.80;71.50;;;;;;4977514;28;20392;-86
2022/10/15 09:15:04;;;;;;;;;;;15.80;71.40;;;;;;4992573;28;19936;-86
2022/10/15 09:17:31;;;;;;;;;;;15.80;71.40;;;;;;5001320;28;19976;-86
2022/10/15 09:19:57;;;;;;;;;;;15.80;71.40;;;;;;5050676;28;19917;-86
2022/10/15 09:22:25;;;;;;;;;;;15.90;71.50;;;;;;5034208;28;20012;-87
2022/10/15 09:24:51;;;;;;;;;;;15.90;71.40;;;;;;5034501;28;20365;-88
2022/10/15 09:27:31;;;;;;;;;;;15.90;71.40;;;;;;5001620;28;19959;-86
2022/10/15 09:30:16;;;;;;;;;;;16.00;71.50;;;;;;5035552;28;20373;-86
2022/10/15 09:32:44;;;;;;;;;;;16.00;71.50;;;;;;5050335;28;19921;-85
2022/10/15 09:35:16;;;;;;;;;;;16.00;71.50;;;;;;5033809;28;20004;-84
2022/10/15 09:37:49;;;;;;;;;;;16.10;71.50;;;;;;5050275;28;19920;-86
2022/10/15 09:40:34;;;;;;;;;;;16.10;71.50;;;;;;5050341;28;19921;-86
2022/10/15 09:43:00;;;;;;;;;;;16.10;71.50;;;;;;5034044;28;19917;-85
2022/10/15 09:45:26;;;;;;;;;;;16.20;71.60;;;;;;5033968;28;19916;-89
2022/10/15 09:47:55;;;;;;;;;;;16.20;71.50;;;;;;5034481;28;19913;-85
2022/10/15 09:50:21;;;;;;;;;;;16.20;71.50;;;;;;5033361;28;20301;-86
2022/10/15 09:52:56;;;;;;;;;;;16.20;71.50;;;;;;5017935;28;19917;-84
2022/10/15 09:55:34;;;;;;;;;;;16.20;71.50;;;;;;5050349;28;19909;-86
2022/10/15 09:58:09;;;;;;;;;;;16.30;71.50;;;;;;5036220;28;19979;-85
2022/10/15 10:00:53;;;;;;;;;;;16.30;71.50;;;;;;5038888;28;19981;-86
2022/10/15 10:03:20;;;;;;;;;;;16.40;71.50;;;;;;5041252;28;19917;-83
2022/10/15 10:05:46;;;;;;;;;;;16.40;71.50;;;;;;5036204;28;19909;-86
2022/10/15 10:08:12;;;;;;;;;;;16.40;71.50;;;;;;5018219;28;19924;-86
2022/10/15 10:10:38;;;;;;;;;;;16.40;71.50;;;;;;5035629;28;19972;-86
2022/10/15 10:13:06;;;;;;;;;;;16.50;71.60;;;;;;5034318;28;19913;-87
2022/10/15 10:15:33;;;;;;;;;;;16.50;72.30;;;;;;5034449;28;19909;-87
2022/10/15 10:17:59;;;;;;;;;;;16.60;71.70;;;;;;5033665;28;20342;-87
2022/10/15 10:20:29;;;;;;;;;;;16.60;71.60;;;;;;5034596;28;19964;-88
2022/10/15 10:22:59;;;;;;;;;;;16.60;71.70;;;;;;5034180;28;19921;-88
2022/10/15 10:25:25;;;;;;;;;;;16.70;71.70;;;;;;5050518;28;19913;-89
2022/10/15 10:27:51;;;;;;;;;;;16.70;71.70;;;;;;5050782;28;19939;-88
2022/10/15 10:30:17;;;;;;;;;;;16.70;72.30;;;;;;5034087;28;19921;-87
2022/10/15 10:32:43;;;;;;;;;;;16.80;71.70;;;;;;5016860;28;19936;-86
2022/10/15 10:35:23;;;;;;;;;;;16.80;71.70;;;;;;5033367;28;19913;-87
2022/10/15 10:37:49;;;;;;;;;;;16.80;71.70;;;;;;5033091;28;19951;-87
2022/10/15 10:40:33;;;;;;;;;;;16.80;71.70;;;;;;5034515;28;20339;-87
2022/10/15 10:43:17;;;;;;;;;;;16.80;71.60;;;;;;5036623;28;21169;-85
2022/10/15 10:45:53;;;;;;;;;;;16.90;71.70;;;;;;5040586;28;19914;-87
2022/10/15 10:48:24;;;;;;;;;;;16.90;71.70;;;;;;5041384;28;19936;-87
2022/10/15 10:51:00;;;;;;;;;;;16.90;71.60;;;;;;5039347;28;19916;-85
2022/10/15 10:53:26;;;;;;;;;;;16.90;71.60;;;;;;5038678;28;19931;-87
2022/10/15 10:55:54;;;;;;;;;;;16.90;71.60;;;;;;5037374;28;20000;-88
2022/10/15 10:58:26;;;;;;;;;;;17.00;71.60;;;;;;5038676;28;19913;-88
2022/10/15 11:00:52;;;;;;;;;;;17.00;71.60;;;;;;5037596;28;20086;-89
2022/10/15 11:03:33;;;;;;;;;;;17.00;71.60;;;;;;5037853;28;19913;-87
2022/10/15 11:06:19;;;;;;;;;;;17.00;71.60;;;;;;5037641;28;19913;-88
2022/10/15 11:09:03;;;;;;;;;;;17.10;71.60;;;;;;5038115;28;19920;-88
2022/10/15 11:11:35;;;;;;;;;;;17.10;71.60;;;;;;5041696;28;19936;-89
2022/10/15 11:14:16;;;;;;;;;;;17.10;71.60;;;;;;5056061;28;19920;-90
2022/10/15 11:16:41;;;;;;;;;;;17.10;71.60;;;;;;5038626;28;19989;-91
2022/10/15 11:19:27;;;;;;;;;;;17.10;71.50;;;;;;5053524;28;19912;-87
2022/10/15 11:21:57;;;;;;;;;;;17.10;71.50;;;;;;5036642;28;20015;-86
2022/10/15 11:24:38;;;;;;;;;;;17.10;71.50;;;;;;5037218;28;19913;-88
2022/10/15 11:27:20;;;;;;;;;;;17.10;71.50;;;;;;5055570;28;19913;-90
2022/10/15 11:29:49;;;;;;;;;;;17.20;71.60;;;;;;5038951;28;19913;-90
2022/10/15 11:32:47;;;;;;;;;;;17.20;71.60;;;;;;5041010;28;19913;-91
2022/10/15 11:35:26;;;;;;;;;;;17.20;71.60;;;;;;4987450;28;19932;-91
2022/10/15 11:37:54;;;;;;;;;;;17.30;71.60;;;;;;5036783;28;19913;-90
2022/10/15 11:40:31;;;;;;;;;;;17.20;71.50;;;;;;5053597;28;19921;-90
2022/10/15 11:43:09;;;;;;;;;;;17.30;71.60;;;;;;5052675;28;19913;-91
2022/10/15 11:45:47;;;;;;;;;;;17.30;71.60;;;;;;5035932;28;20006;-90
2022/10/15 11:48:22;;;;;;;;;;;17.30;71.60;;;;;;5036185;28;20238;-91
2022/10/15 11:50:56;;;;;;;;;;;17.30;71.50;;;;;;5034539;28;19913;-89
2022/10/15 11:53:25;;;;;;;;;;;17.30;71.60;;;;;;5034915;28;19917;-91
2022/10/15 11:55:57;;;;;;;;;;;17.40;71.60;;;;;;5036233;28;19999;-89
2022/10/15 11:58:26;;;;;;;;;;;17.40;71.60;;;;;;5035729;28;19909;-88
2022/10/15 12:00:55;;;;;;;;;;;17.40;71.60;;;;;;5035042;28;19917;-90
2022/10/15 12:03:26;;;;;;;;;;;17.40;71.60;;;;;;5035116;28;19913;-90
2022/10/15 12:05:59;;;;;;;;;;;17.40;71.50;;;;;;5034867;28;19909;-89
2022/10/15 12:08:29;;;;;;;;;;;17.40;71.50;;;;;;5035213;28;20038;-89
2022/10/15 12:10:58;;;;;;;;;;;17.40;71.50;;;;;;5035018;28;19960;-89
2022/10/15 12:13:38;;;;;;;;;;;17.50;71.70;;;;;;5035133;28;20311;-89
2022/10/15 12:16:18;;;;;;;;;;;17.50;71.60;;;;;;5034918;28;19913;-90
2022/10/15 12:19:02;;;;;;;;;;;17.50;71.50;;;;;;5035322;28;19917;-90
2022/10/15 12:21:33;;;;;;;;;;;17.50;71.50;;;;;;5051591;28;19921;-86
2022/10/15 12:23:59;;;;;;;;;;;17.50;71.60;;;;;;5035068;28;19946;-89
2022/10/15 12:26:31;;;;;;;;;;;17.50;71.50;;;;;;5035324;28;19913;-88
2022/10/15 12:29:16;;;;;;;;;;;17.60;71.60;;;;;;5035221;28;20361;-89
2022/10/15 12:31:55;;;;;;;;;;;17.50;71.50;;;;;;5035340;28;19915;-91
2022/10/15 12:34:25;;;;;;;;;;;17.60;71.50;;;;;;5035685;28;20008;-88
2022/10/15 12:37:01;;;;;;;;;;;17.60;71.50;;;;;;5034771;28;19960;-89
2022/10/15 12:39:28;;;;;;;;;;;17.60;71.50;;;;;;5034893;28;19921;-88
2022/10/15 12:41:54;;;;;;;;;;;17.60;71.50;;;;;;5034361;28;19925;-89
2022/10/15 12:44:22;;;;;;;;;;;17.60;71.50;;;;;;5018374;28;19963;-89
2022/10/15 12:46:48;;;;;;;;;;;17.60;71.50;;;;;;5034445;28;19913;-90
2022/10/15 12:49:29;;;;;;;;;;;17.70;71.60;;;;;;5052022;28;19919;-90
2022/10/15 12:51:56;;;;;;;;;;;17.70;71.60;;;;;;5036167;28;20004;-90
2022/10/15 12:54:32;;;;;;;;;;;17.70;71.50;;;;;;5018932;28;20012;-87
2022/10/15 12:56:57;;;;;;;;;;;17.70;71.50;;;;;;5034907;28;20340;-88
2022/10/15 12:59:28;;;;;;;;;;;17.80;71.50;;;;;;5034644;28;19909;-89
2022/10/15 13:01:54;;;;;;;;;;;17.80;71.60;;;;;;5034695;28;19980;-88
2022/10/15 13:04:20;;;;;;;;;;;17.80;71.50;;;;;;5033907;28;20059;-88
2022/10/15 13:06:46;;;;;;;;;;;17.80;71.50;;;;;;5034536;28;19956;-89
2022/10/15 13:09:12;;;;;;;;;;;17.80;71.50;;;;;;5034419;28;19935;-89
2022/10/15 13:11:44;;;;;;;;;;;17.80;71.60;;;;;;5034529;28;19913;-88
2022/10/15 13:14:10;;;;;;;;;;;17.90;71.60;;;;;;5034556;28;19920;-89
2022/10/15 13:16:36;;;;;;;;;;;17.90;71.50;;;;;;5051325;28;19909;-89
2022/10/15 13:19:02;;;;;;;;;;;17.90;71.50;;;;;;5034366;28;19920;-88
2022/10/15 13:21:49;;;;;;;;;;;17.90;71.50;;;;;;5034416;28;20353;-88
2022/10/15 13:24:18;;;;;;;;;;;18.00;71.60;;;;;;5034291;28;19917;-89
2022/10/15 13:26:44;;;;;;;;;;;18.00;71.60;;;;;;5017703;28;19913;-89
2022/10/15 13:29:22;;;;;;;;;;;18.00;71.60;;;;;;5017820;28;20003;-88
2022/10/15 13:31:49;;;;;;;;;;;18.00;71.60;;;;;;5034042;28;19967;-88
2022/10/15 13:34:31;;;;;;;;;;;18.10;71.60;;;;;;5033937;28;19975;-90
2022/10/15 13:36:59;;;;;;;;;;;18.00;71.60;;;;;;5034040;28;19909;-89
2022/10/15 13:39:27;;;;;;;;;;;18.10;71.60;;;;;;5035475;28;20028;-89
2022/10/15 13:42:13;;;;;;;;;;;18.10;71.60;;;;;;5033977;28;19921;-88
2022/10/15 13:44:43;;;;;;;;;;;18.10;71.60;;;;;;5033457;28;19980;-88
2022/10/15 13:47:27;;;;;;;;;;;18.10;71.60;;;;;;5034047;28;19992;-89
2022/10/15 13:50:12;;;;;;;;;;;18.10;71.60;;;;;;5051421;28;19920;-87
2022/10/15 13:52:42;;;;;;;;;;;18.20;71.70;;;;;;5050378;28;19913;-87
2022/10/15 13:55:17;;;;;;;;;;;18.20;71.60;;;;;;5034038;28;19935;-88
2022/10/15 13:57:44;;;;;;;;;;;18.20;71.60;;;;;;5036876;28;19938;-87
2022/10/15 14:00:39;;;;;;;;;;;18.30;71.70;;;;;;5033793;28;19917;-87
2022/10/15 14:03:12;;;;;;;;;;;18.30;71.70;;;;;;5004485;28;19916;-88
2022/10/15 14:05:38;;;;;;;;;;;18.30;71.60;;;;;;5033707;28;19912;-87
2022/10/15 14:08:04;;;;;;;;;;;18.30;71.60;;;;;;5033307;28;20334;-88
2022/10/15 14:10:30;;;;;;;;;;;18.40;71.60;;;;;;5017400;28;19959;-88
2022/10/15 14:12:56;;;;;;;;;;;18.40;71.60;;;;;;5033520;28;19956;-90
2022/10/15 14:15:41;;;;;;;;;;;18.40;71.60;;;;;;5019006;28;20006;-89
2022/10/15 14:18:07;;;;;;;;;;;18.40;71.60;;;;;;5037796;28;19962;-89
2022/10/15 14:20:32;;;;;;;;;;;18.40;71.60;;;;;;5038384;28;19917;-89
2022/10/15 14:22:58;;;;;;;;;;;18.40;71.60;;;;;;5025512;28;19918;-89
2022/10/15 14:25:24;;;;;;;;;;;18.40;71.50;;;;;;5046140;28;19913;-88
2022/10/15 14:27:50;;;;;;;;;;;18.50;71.50;;;;;;5042951;28;19936;-89
2022/10/15 14:30:38;;;;;;;;;;;18.50;71.50;;;;;;5060823;28;19913;-88
2022/10/15 14:33:03;;;;;;;;;;;18.50;71.50;;;;;;5042770;28;19913;-89